Time;durP1;ratioP1;P1;durP2;ratioP2;P2;SDS_P1;SDS_P2;PMS_P1;PMS_P2;Temp;Humidity;BMP_temperature;BMP_pressure;BME280_temperature;BME280_humidity;BME280_pressure;Samples;Min_cycle;Max_cycle;Signal;HPM_P1;HPM_P2
2020/12/02 00:02:05;;;;;;;;;;;;;;;;;;5044017;28;19932;-64
2020/12/02 00:04:31;;;;;;;;;;;;;;;;;;5044606;28;19925;-63
2020/12/02 00:06:58;;;;;;;;;;;;;;;;;;5039798;28;19925;-63
2020/12/02 00:09:24;;;;;;;;;;;;;;;;;;5036993;28;19965;-64
2020/12/02 00:11:51;;;;;;;;;;;;;;;;;;5043157;28;20456;-64
2020/12/02 00:14:17;;;;;;;;;;;;;;;;;;5041136;28;19955;-63
2020/12/02 00:16:44;;;;;;;;;;;;;;;;;;5043417;28;20035;-63
2020/12/02 00:19:10;;;;;;;;;;;;;;;;;;5046809;28;19964;-63
2020/12/02 00:21:37;;;;;;;;;;;;;;;;;;5043032;28;20043;-63
2020/12/02 00:24:03;;;;;;;;;;;;;;;;;;5044183;28;19933;-63
2020/12/02 00:26:30;;;;;;;;;;;;;;;;;;5053973;28;20011;-66
2020/12/02 00:28:56;;;;;;;;;;;;;;;;;;5044485;28;19964;-64
2020/12/02 00:31:23;;;;;;;;;;;;;;;;;;5039307;28;19968;-64
2020/12/02 00:33:49;;;;;;;;;;;;;;;;;;5041189;28;19960;-63
2020/12/02 00:36:16;;;;;;;;;;;;;;;;;;5044672;28;19961;-63
2020/12/02 00:38:42;;;;;;;;;;;;;;;;;;5049589;28;19967;-63
2020/12/02 00:41:09;;;;;;;;;;;;;;;;;;5039563;28;19998;-63
2020/12/02 00:43:35;;;;;;;;;;;;;;;;;;5045123;28;19972;-63
2020/12/02 00:46:02;;;;;;;;;;;;;;;;;;5047990;28;19971;-63
2020/12/02 00:48:28;;;;;;;;;;;;;;;;;;5035667;28;20012;-64
2020/12/02 00:50:55;;;;;;;;;;;;;;;;;;5043424;28;19976;-64
2020/12/02 00:53:21;;;;;;;;;;;;;;;;;;5035179;28;20027;-63
2020/12/02 00:55:48;;;;;;;;;;;;;;;;;;5034430;28;19965;-63
2020/12/02 00:58:14;;;;;;;;;;;;;;;;;;5036239;28;20293;-63
2020/12/02 01:00:41;;;;;;;;;;;;;;;;;;5039085;28;20032;-63
2020/12/02 01:03:07;;;;;;;;;;;;;;;;;;5034824;28;19967;-63
2020/12/02 01:05:33;;;;;;;;;;;;;;;;;;5034115;28;19965;-63
2020/12/02 01:08:00;;;;;;;;;;;;;;;;;;5034648;28;19957;-64
2020/12/02 01:10:26;;;;;;;;;;;;;;;;;;5051195;28;20016;-63
2020/12/02 01:12:53;;;;;;;;;;;;;;;;;;5044847;28;19936;-63
2020/12/02 01:15:20;;;;;;;;;;;;;;;;;;5033981;28;19996;-63
2020/12/02 01:17:46;;;;;;;;;;;;;;;;;;5038528;28;20300;-64
2020/12/02 01:20:13;;;;;;;;;;;;;;;;;;5045762;28;19963;-63
2020/12/02 01:22:39;;;;;;;;;;;;;;;;;;5044782;28;19960;-66
2020/12/02 01:25:06;;;;;;;;;;;;;;;;;;5045681;28;19925;-62
2020/12/02 01:27:32;;;;;;;;;;;;;;;;;;5045908;28;19925;-62
2020/12/02 01:29:58;;;;;;;;;;;;;;;;;;5043393;28;19956;-63
2020/12/02 01:32:25;;;;;;;;;;;;;;;;;;5036916;28;20337;-63
2020/12/02 01:34:51;;;;;;;;;;;;;;;;;;5047797;28;19925;-63
2020/12/02 01:37:18;;;;;;;;;;;;;;;;;;5050976;28;20561;-62
2020/12/02 01:39:45;;;;;;;;;;;;;;;;;;5048977;28;19932;-63
2020/12/02 01:42:11;;;;;;;;;;;;;;;;;;5052273;28;19928;-63
2020/12/02 01:44:38;;;;;;;;;;;;;;;;;;5033782;28;19960;-63
2020/12/02 01:47:04;;;;;;;;;;;;;;;;;;5044672;28;19964;-63
2020/12/02 01:49:31;;;;;;;;;;;;;;;;;;5043860;28;20032;-63
2020/12/02 01:51:58;;;;;;;;;;;;;;;;;;5046086;28;19925;-63
2020/12/02 01:54:24;;;;;;;;;;;;;;;;;;5046711;28;19925;-63
2020/12/02 01:56:51;;;;;;;;;;;;;;;;;;5043965;28;20391;-65
2020/12/02 01:59:17;;;;;;;;;;;;;;;;;;5035375;28;19925;-63
2020/12/02 02:01:44;;;;;;;;;;;;;;;;;;5033421;28;20357;-63
2020/12/02 02:04:11;;;;;;;;;;;;;;;;;;5037988;28;19932;-63
2020/12/02 02:06:37;;;;;;;;;;;;;;;;;;5044776;28;19928;-63
2020/12/02 02:09:04;;;;;;;;;;;;;;;;;;5042332;28;20427;-63
2020/12/02 02:11:30;;;;;;;;;;;;;;;;;;5032941;28;19975;-63
2020/12/02 02:13:57;;;;;;;;;;;;;;;;;;5032863;28;20365;-63
2020/12/02 02:16:23;;;;;;;;;;;;;;;;;;5051468;28;19975;-63
2020/12/02 02:18:50;;;;;;;;;;;;;;;;;;5048773;28;20354;-63
2020/12/02 02:21:16;;;;;;;;;;;;;;;;;;5051105;28;19968;-61
2020/12/02 02:23:42;;;;;;;;;;;;;;;;;;5042433;28;20200;-63
2020/12/02 02:26:09;;;;;;;;;;;;;;;;;;5033017;28;19965;-63
2020/12/02 02:28:36;;;;;;;;;;;;;;;;;;5040665;28;19960;-62
2020/12/02 02:31:02;;;;;;;;;;;;;;;;;;5032925;28;19925;-62
2020/12/02 02:33:29;;;;;;;;;;;;;;;;;;5049577;28;19960;-62
2020/12/02 02:35:55;;;;;;;;;;;;;;;;;;5049583;28;19971;-63
2020/12/02 02:38:23;;;;;;;;;;;;;;;;;;5036548;28;19968;-64
2020/12/02 02:40:49;;;;;;;;;;;;;;;;;;5052717;28;19924;-63
2020/12/02 02:43:16;;;;;;;;;;;;;;;;;;5045847;28;20458;-63
2020/12/02 02:45:42;;;;;;;;;;;;;;;;;;5052765;28;19956;-62
2020/12/02 02:48:08;;;;;;;;;;;;;;;;;;5037773;28;19925;-62
2020/12/02 02:50:35;;;;;;;;;;;;;;;;;;5036861;28;19956;-63
2020/12/02 02:53:02;;;;;;;;;;;;;;;;;;5050820;28;19964;-62
2020/12/02 02:55:28;;;;;;;;;;;;;;;;;;5053220;28;19924;-63
2020/12/02 02:57:55;;;;;;;;;;;;;;;;;;5035511;28;20439;-63
2020/12/02 03:00:21;;;;;;;;;;;;;;;;;;5041985;28;20393;-63
2020/12/02 03:02:48;;;;;;;;;;;;;;;;;;5046099;28;20290;-63
2020/12/02 03:05:14;;;;;;;;;;;;;;;;;;5048608;28;19924;-65
2020/12/02 03:07:41;;;;;;;;;;;;;;;;;;5055180;28;19972;-63
2020/12/02 03:10:07;;;;;;;;;;;;;;;;;;5045335;28;19963;-63
2020/12/02 03:12:34;;;;;;;;;;;;;;;;;;5058753;28;20277;-63
2020/12/02 03:15:00;;;;;;;;;;;;;;;;;;5043614;28;19925;-63
2020/12/02 03:17:27;;;;;;;;;;;;;;;;;;5041140;28;19925;-62
2020/12/02 03:19:53;;;;;;;;;;;;;;;;;;5038266;28;19960;-63
2020/12/02 03:22:20;;;;;;;;;;;;;;;;;;5038898;28;19949;-64
2020/12/02 03:24:46;;;;;;;;;;;;;;;;;;5051257;28;19960;-64
2020/12/02 03:27:13;;;;;;;;;;;;;;;;;;5056919;28;19964;-63
2020/12/02 03:29:39;;;;;;;;;;;;;;;;;;5054784;28;19947;-63
2020/12/02 03:32:06;;;;;;;;;;;;;;;;;;5042837;28;19948;-63
2020/12/02 03:34:32;;;;;;;;;;;;;;;;;;5048467;28;20023;-63
2020/12/02 03:36:59;;;;;;;;;;;;;;;;;;5052257;28;20369;-63
2020/12/02 03:39:25;;;;;;;;;;;;;;;;;;5040023;28;19925;-63
2020/12/02 03:41:52;;;;;;;;;;;;;;;;;;5050940;28;20365;-63
2020/12/02 03:44:18;;;;;;;;;;;;;;;;;;5042379;28;19925;-63
2020/12/02 03:46:45;;;;;;;;;;;;;;;;;;5046402;28;19960;-63
2020/12/02 03:49:11;;;;;;;;;;;;;;;;;;5053488;28;19970;-63
2020/12/02 03:51:38;;;;;;;;;;;;;;;;;;5041089;28;20303;-64
2020/12/02 03:54:04;;;;;;;;;;;;;;;;;;5046038;28;20022;-63
2020/12/02 03:56:31;;;;;;;;;;;;;;;;;;5049007;28;19960;-63
2020/12/02 03:58:57;;;;;;;;;;;;;;;;;;5057707;28;19925;-63
2020/12/02 04:01:24;;;;;;;;;;;;;;;;;;5045079;28;20388;-63
2020/12/02 04:03:50;;;;;;;;;;;;;;;;;;5046669;28;19929;-63
2020/12/02 04:06:17;;;;;;;;;;;;;;;;;;5041193;28;20308;-63
2020/12/02 04:08:43;;;;;;;;;;;;;;;;;;5041732;28;19990;-63
2020/12/02 04:11:10;;;;;;;;;;;;;;;;;;5048802;28;19947;-63
2020/12/02 04:13:36;;;;;;;;;;;;;;;;;;5041032;28;19964;-63
2020/12/02 04:16:03;;;;;;;;;;;;;;;;;;5041445;28;20005;-63
2020/12/02 04:18:29;;;;;;;;;;;;;;;;;;5043227;28;19925;-63
2020/12/02 04:20:56;;;;;;;;;;;;;;;;;;5051257;28;20396;-63
2020/12/02 04:23:22;;;;;;;;;;;;;;;;;;5042169;28;20015;-63
2020/12/02 04:25:49;;;;;;;;;;;;;;;;;;5045521;28;19928;-63
2020/12/02 04:28:15;;;;;;;;;;;;;;;;;;5047272;28;19978;-62
2020/12/02 04:30:43;;;;;;;;;;;;;;;;;;5055766;28;19964;-62
2020/12/02 04:33:10;;;;;;;;;;;;;;;;;;5051580;28;19925;-63
2020/12/02 04:35:36;;;;;;;;;;;;;;;;;;5054888;28;19929;-62
2020/12/02 04:38:03;;;;;;;;;;;;;;;;;;5044769;28;19980;-62
2020/12/02 04:40:29;;;;;;;;;;;;;;;;;;5037285;28;19925;-63
2020/12/02 04:42:56;;;;;;;;;;;;;;;;;;5060198;22;19965;-66
2020/12/02 04:45:22;;;;;;;;;;;;;;;;;;5043057;28;20010;-65
2020/12/02 04:47:49;;;;;;;;;;;;;;;;;;5034189;28;20029;-65
2020/12/02 04:50:15;;;;;;;;;;;;;;;;;;5038046;28;20460;-69
2020/12/02 04:52:42;;;;;;;;;;;;;;;;;;5021671;28;20012;-66
2020/12/02 04:55:08;;;;;;;;;;;;;;;;;;5028090;28;20016;-66
2020/12/02 04:57:34;;;;;;;;;;;;;;;;;;5030532;28;20353;-66
2020/12/02 05:00:01;;;;;;;;;;;;;;;;;;5022077;28;20024;-66
2020/12/02 05:02:27;;;;;;;;;;;;;;;;;;5028835;28;20340;-66
2020/12/02 05:04:54;;;;;;;;;;;;;;;;;;5019092;28;19976;-66
2020/12/02 05:07:21;;;;;;;;;;;;;;;;;;5030747;28;20464;-66
2020/12/02 05:09:47;;;;;;;;;;;;;;;;;;5022670;28;20012;-66
2020/12/02 05:12:14;;;;;;;;;;;;;;;;;;5024249;28;20024;-66
2020/12/02 05:14:40;;;;;;;;;;;;;;;;;;5026910;28;19933;-65
2020/12/02 05:17:07;;;;;;;;;;;;;;;;;;5017095;28;19960;-66
2020/12/02 05:19:33;;;;;;;;;;;;;;;;;;5028940;28;20351;-66
2020/12/02 05:22:00;;;;;;;;;;;;;;;;;;5028285;28;20009;-66
2020/12/02 05:24:26;;;;;;;;;;;;;;;;;;5024038;28;20411;-65
2020/12/02 05:26:53;;;;;;;;;;;;;;;;;;5016536;28;20017;-66
2020/12/02 05:29:19;;;;;;;;;;;;;;;;;;5013907;28;19956;-65
2020/12/02 05:31:46;;;;;;;;;;;;;;;;;;5026551;28;20004;-65
2020/12/02 05:34:12;;;;;;;;;;;;;;;;;;5026535;28;20389;-65
2020/12/02 05:36:39;;;;;;;;;;;;;;;;;;5014548;28;20048;-65
2020/12/02 05:39:05;;;;;;;;;;;;;;;;;;5013734;28;20016;-66
2020/12/02 05:41:32;;;;;;;;;;;;;;;;;;5013953;28;19925;-65
2020/12/02 05:43:58;;;;;;;;;;;;;;;;;;5032195;28;19967;-66
2020/12/02 05:46:25;;;;;;;;;;;;;;;;;;5013576;28;19975;-65
2020/12/02 05:48:51;;;;;;;;;;;;;;;;;;5023734;28;19926;-66
2020/12/02 05:51:18;;;;;;;;;;;;;;;;;;5016038;28;20837;-67
2020/12/02 05:53:44;;;;;;;;;;;;;;;;;;5016074;28;19972;-66
2020/12/02 05:56:11;;;;;;;;;;;;;;;;;;5025551;28;20365;-66
2020/12/02 05:58:39;;;;;;;;;;;;;;;;;;5031092;28;19972;-65
2020/12/02 06:01:05;;;;;;;;;;;;;;;;;;5025292;28;19925;-66
2020/12/02 06:03:32;;;;;;;;;;;;;;;;;;5024770;28;19925;-65
2020/12/02 06:05:58;;;;;;;;;;;;;;;;;;5022790;28;19983;-65
2020/12/02 06:08:25;;;;;;;;;;;;;;;;;;5017769;28;20020;-66
2020/12/02 06:10:53;;;;;;;;;;;;;;;;;;5028899;28;19929;-64
2020/12/02 06:13:19;;;;;;;;;;;;;;;;;;5025033;28;19925;-65
2020/12/02 06:15:46;;;;;;;;;;;;;;;;;;5024486;28;20013;-66
2020/12/02 06:18:12;;;;;;;;;;;;;;;;;;5024736;28;19976;-66
2020/12/02 06:20:39;;;;;;;;;;;;;;;;;;5028191;28;19964;-66
2020/12/02 06:23:05;;;;;;;;;;;;;;;;;;5023398;28;19992;-65
2020/12/02 06:25:32;;;;;;;;;;;;;;;;;;5030982;28;19983;-66
2020/12/02 06:27:58;;;;;;;;;;;;;;;;;;5027791;28;19980;-65
2020/12/02 06:30:25;;;;;;;;;;;;;;;;;;5029996;28;19964;-66
2020/12/02 06:32:51;;;;;;;;;;;;;;;;;;5025820;28;19984;-66
2020/12/02 06:35:18;;;;;;;;;;;;;;;;;;5022420;28;19972;-66
2020/12/02 06:37:44;;;;;;;;;;;;;;;;;;5032357;28;19965;-65
2020/12/02 06:40:11;;;;;;;;;;;;;;;;;;5020031;28;19925;-66
2020/12/02 06:42:37;;;;;;;;;;;;;;;;;;5026712;28;20009;-66
2020/12/02 06:45:04;;;;;;;;;;;;;;;;;;5020942;28;19938;-67
2020/12/02 06:47:32;;;;;;;;;;;;;;;;;;5032500;28;19937;-66
2020/12/02 06:50:02;;;;;;;;;;;;;;;;;;5016832;28;19961;-66
2020/12/02 06:52:28;;;;;;;;;;;;;;;;;;5012249;28;20389;-65
2020/12/02 06:54:55;;;;;;;;;;;;;;;;;;5012973;28;19980;-65
2020/12/02 06:57:21;;;;;;;;;;;;;;;;;;5018122;28;19925;-65
2020/12/02 06:59:48;;;;;;;;;;;;;;;;;;5020326;28;19971;-66
2020/12/02 07:02:14;;;;;;;;;;;;;;;;;;5023574;28;19961;-67
2020/12/02 07:04:41;;;;;;;;;;;;;;;;;;5020780;28;20017;-67
2020/12/02 07:07:07;;;;;;;;;;;;;;;;;;5013156;28;19933;-66
2020/12/02 07:09:36;;;;;;;;;;;;;;;;;;5028293;28;19968;-66
2020/12/02 07:12:02;;;;;;;;;;;;;;;;;;5020575;28;19932;-64
2020/12/02 07:14:29;;;;;;;;;;;;;;;;;;5017100;28;20379;-66
2020/12/02 07:16:55;;;;;;;;;;;;;;;;;;5029296;28;19968;-64
2020/12/02 07:19:22;;;;;;;;;;;;;;;;;;5032479;28;19980;-65
2020/12/02 07:21:48;;;;;;;;;;;;;;;;;;5019945;28;19973;-65
2020/12/02 07:24:15;;;;;;;;;;;;;;;;;;5024176;28;19973;-65
2020/12/02 07:26:41;;;;;;;;;;;;;;;;;;5025706;28;19989;-65
2020/12/02 07:29:07;;;;;;;;;;;;;;;;;;5026181;28;20039;-65
2020/12/02 07:31:34;;;;;;;;;;;;;;;;;;5020262;28;19995;-66
2020/12/02 07:34:00;;;;;;;;;;;;;;;;;;5024551;28;20349;-65
2020/12/02 07:36:27;;;;;;;;;;;;;;;;;;5028460;28;20000;-65
2020/12/02 07:38:53;;;;;;;;;;;;;;;;;;5022588;28;19984;-64
2020/12/02 07:41:22;;;;;;;;;;;;;;;;;;5023719;28;20019;-64
2020/12/02 07:43:48;;;;;;;;;;;;;;;;;;5020714;28;20293;-62
2020/12/02 07:46:15;;;;;;;;;;;;;;;;;;5017035;28;19968;-64
2020/12/02 07:48:41;;;;;;;;;;;;;;;;;;5028219;28;20341;-62
2020/12/02 07:51:07;;;;;;;;;;;;;;;;;;5030404;28;20015;-62
2020/12/02 07:53:34;;;;;;;;;;;;;;;;;;5038987;28;20027;-62
2020/12/02 07:56:00;;;;;;;;;;;;;;;;;;5023315;28;20015;-63
2020/12/02 07:58:27;;;;;;;;;;;;;;;;;;5026299;28;20137;-61
2020/12/02 08:00:53;;;;;;;;;;;;;;;;;;5025820;28;19965;-63
2020/12/02 08:03:20;;;;;;;;;;;;;;;;;;5025484;28;20340;-63
2020/12/02 08:05:46;;;;;;;;;;;;;;;;;;5026664;28;20016;-63
2020/12/02 08:08:13;;;;;;;;;;;;;;;;;;5017832;28;19988;-63
2020/12/02 08:10:39;;;;;;;;;;;;;;;;;;5020810;28;19968;-63
2020/12/02 08:13:06;;;;;;;;;;;;;;;;;;5016739;28;20026;-63
2020/12/02 08:15:33;;;;;;;;;;;;;;;;;;5029421;28;19940;-63
2020/12/02 08:17:59;;;;;;;;;;;;;;;;;;5026100;28;19987;-64
2020/12/02 08:20:27;;;;;;;;;;;;;;;;;;5016373;28;19965;-64
2020/12/02 08:22:53;;;;;;;;;;;;;;;;;;5022205;28;19929;-65
2020/12/02 08:25:20;;;;;;;;;;;;;;;;;;5022483;28;19980;-66
2020/12/02 08:27:46;;;;;;;;;;;;;;;;;;5025301;28;19977;-65
2020/12/02 08:30:16;;;;;;;;;;;;;;;;;;5030461;28;19984;-64
2020/12/02 08:32:42;;;;;;;;;;;;;;;;;;5025224;28;19933;-65
2020/12/02 08:35:09;;;;;;;;;;;;;;;;;;5016605;28;19925;-65
2020/12/02 08:37:35;;;;;;;;;;;;;;;;;;5038432;28;19933;-65
2020/12/02 08:40:02;;;;;;;;;;;;;;;;;;5032304;28;19960;-66
2020/12/02 08:42:30;;;;;;;;;;;;;;;;;;5040850;28;19979;-66
2020/12/02 08:44:56;;;;;;;;;;;;;;;;;;5037980;28;19931;-66
2020/12/02 08:47:23;;;;;;;;;;;;;;;;;;5020812;28;19968;-65
2020/12/02 08:49:49;;;;;;;;;;;;;;;;;;5023931;28;19925;-64
2020/12/02 08:52:16;;;;;;;;;;;;;;;;;;5026544;28;19971;-65
2020/12/02 08:54:42;;;;;;;;;;;;;;;;;;5026433;28;20007;-65
2020/12/02 08:57:11;;;;;;;;;;;;;;;;;;5031388;28;19925;-65
2020/12/02 08:59:37;;;;;;;;;;;;;;;;;;5032408;28;19925;-66
2020/12/02 09:02:04;;;;;;;;;;;;;;;;;;5037831;28;19984;-66
2020/12/02 09:04:30;;;;;;;;;;;;;;;;;;5036247;28;20020;-66
2020/12/02 09:06:57;;;;;;;;;;;;;;;;;;5030044;28;19929;-66
2020/12/02 09:09:24;;;;;;;;;;;;;;;;;;5017532;28;19980;-66
2020/12/02 09:11:50;;;;;;;;;;;;;;;;;;5033297;28;19935;-67
2020/12/02 09:14:17;;;;;;;;;;;;;;;;;;5032546;28;20010;-65
2020/12/02 09:16:43;;;;;;;;;;;;;;;;;;5031594;28;19933;-66
2020/12/02 09:19:10;;;;;;;;;;;;;;;;;;5021670;28;19976;-66
2020/12/02 09:21:36;;;;;;;;;;;;;;;;;;5015415;28;19989;-66
2020/12/02 09:24:03;;;;;;;;;;;;;;;;;;5024873;28;19929;-67
2020/12/02 09:26:29;;;;;;;;;;;;;;;;;;5028692;28;19925;-63
2020/12/02 09:28:56;;;;;;;;;;;;;;;;;;5024503;28;19972;-64
2020/12/02 09:31:23;;;;;;;;;;;;;;;;;;5008017;28;19995;-67
2020/12/02 09:33:49;;;;;;;;;;;;;;;;;;5020419;28;20000;-69
2020/12/02 09:36:16;;;;;;;;;;;;;;;;;;5019736;28;19941;-65
2020/12/02 09:38:42;;;;;;;;;;;;;;;;;;5033706;28;20028;-66
2020/12/02 09:41:09;;;;;;;;;;;;;;;;;;5022527;28;19925;-67
2020/12/02 09:43:35;;;;;;;;;;;;;;;;;;5029889;28;19984;-68
2020/12/02 09:46:03;;;;;;;;;;;;;;;;;;5020576;28;20012;-66
2020/12/02 09:48:29;;;;;;;;;;;;;;;;;;5022657;28;20389;-63
2020/12/02 09:50:56;;;;;;;;;;;;;;;;;;5021103;28;20012;-67
2020/12/02 09:53:22;;;;;;;;;;;;;;;;;;5014302;28;20016;-65
2020/12/02 09:55:49;;;;;;;;;;;;;;;;;;5026946;28;19925;-65
2020/12/02 09:58:15;;;;;;;;;;;;;;;;;;5022215;28;19968;-67
2020/12/02 10:00:42;;;;;;;;;;;;;;;;;;5027766;28;19972;-66
2020/12/02 10:03:08;;;;;;;;;;;;;;;;;;5028804;28;19972;-66
2020/12/02 10:05:35;;;;;;;;;;;;;;;;;;5012784;28;19972;-67
2020/12/02 10:08:01;;;;;;;;;;;;;;;;;;5014496;28;20428;-67
2020/12/02 10:10:27;;;;;;;;;;;;;;;;;;5028177;28;19968;-69
2020/12/02 10:12:54;;;;;;;;;;;;;;;;;;5024177;28;19972;-66
2020/12/02 10:15:21;;;;;;;;;;;;;;;;;;5021690;28;19979;-66
2020/12/02 10:17:47;;;;;;;;;;;;;;;;;;5015485;28;19969;-66
2020/12/02 10:20:13;;;;;;;;;;;;;;;;;;5022920;28;20379;-66
2020/12/02 10:22:40;;;;;;;;;;;;;;;;;;5034807;28;19972;-68
2020/12/02 10:25:07;;;;;;;;;;;;;;;;;;5031306;28;19979;-66
2020/12/02 10:27:33;;;;;;;;;;;;;;;;;;5031455;28;20452;-66
2020/12/02 10:30:00;;;;;;;;;;;;;;;;;;5019577;28;20016;-66
2020/12/02 10:32:26;;;;;;;;;;;;;;;;;;5018899;28;20409;-66
2020/12/02 10:34:53;;;;;;;;;;;;;;;;;;5016725;28;19972;-68
2020/12/02 10:37:19;;;;;;;;;;;;;;;;;;5034641;28;19968;-64
2020/12/02 10:39:46;;;;;;;;;;;;;;;;;;5022346;28;19928;-66
2020/12/02 10:42:13;;;;;;;;;;;;;;;;;;5040931;22;20442;-66
2020/12/02 10:44:39;;;;;;;;;;;;;;;;;;5030694;28;19925;-65
2020/12/02 10:47:06;;;;;;;;;;;;;;;;;;5031421;28;20316;-65
2020/12/02 10:49:33;;;;;;;;;;;;;;;;;;5027689;28;20009;-67
2020/12/02 10:51:59;;;;;;;;;;;;;;;;;;5029749;28;20003;-67
2020/12/02 10:54:27;;;;;;;;;;;;;;;;;;5034681;28;20020;-65
2020/12/02 10:56:53;;;;;;;;;;;;;;;;;;5024987;28;19926;-67
2020/12/02 10:59:20;;;;;;;;;;;;;;;;;;5023098;28;19964;-66
2020/12/02 11:01:46;;;;;;;;;;;;;;;;;;5040374;28;19925;-65
2020/12/02 11:04:13;;;;;;;;;;;;;;;;;;5018579;28;19964;-68
2020/12/02 11:06:39;;;;;;;;;;;;;;;;;;5030581;28;19925;-66
2020/12/02 11:09:06;;;;;;;;;;;;;;;;;;5025933;28;19967;-65
2020/12/02 11:11:32;;;;;;;;;;;;;;;;;;5020220;28;19968;-68
2020/12/02 11:13:59;;;;;;;;;;;;;;;;;;5030491;28;19969;-68
2020/12/02 11:16:25;;;;;;;;;;;;;;;;;;5023551;28;19925;-68
2020/12/02 11:18:52;;;;;;;;;;;;;;;;;;5032517;28;19979;-65
2020/12/02 11:21:23;;;;;;;;;;;;;;;;;;5026615;28;20432;-65
2020/12/02 11:23:50;;;;;;;;;;;;;;;;;;5019707;28;19932;-66
2020/12/02 11:26:16;;;;;;;;;;;;;;;;;;5023389;28;19972;-65
2020/12/02 11:28:43;;;;;;;;;;;;;;;;;;5040317;28;19940;-66
2020/12/02 11:31:09;;;;;;;;;;;;;;;;;;5033246;28;19965;-66
2020/12/02 11:33:35;;;;;;;;;;;;;;;;;;5028664;28;20421;-67
2020/12/02 11:36:02;;;;;;;;;;;;;;;;;;5035287;28;20015;-65
2020/12/02 11:38:28;;;;;;;;;;;;;;;;;;5031147;28;20358;-65
2020/12/02 11:40:55;;;;;;;;;;;;;;;;;;5033100;28;19964;-67
2020/12/02 11:43:21;;;;;;;;;;;;;;;;;;5032517;28;20031;-69
2020/12/02 11:45:48;;;;;;;;;;;;;;;;;;5030342;28;20326;-67
2020/12/02 11:48:14;;;;;;;;;;;;;;;;;;5022271;28;19984;-67
2020/12/02 11:50:41;;;;;;;;;;;;;;;;;;5023158;28;19976;-65
2020/12/02 11:53:07;;;;;;;;;;;;;;;;;;5035679;28;20008;-65
2020/12/02 11:55:34;;;;;;;;;;;;;;;;;;5027415;28;19925;-66
2020/12/02 11:58:00;;;;;;;;;;;;;;;;;;5031108;28;19925;-66
2020/12/02 12:00:27;;;;;;;;;;;;;;;;;;5029208;28;19961;-66
2020/12/02 12:02:53;;;;;;;;;;;;;;;;;;5026559;28;20003;-66
2020/12/02 12:05:20;;;;;;;;;;;;;;;;;;5029897;28;19948;-68
2020/12/02 12:07:46;;;;;;;;;;;;;;;;;;5029581;28;20341;-67
2020/12/02 12:10:13;;;;;;;;;;;;;;;;;;5033438;28;19930;-69
2020/12/02 12:12:39;;;;;;;;;;;;;;;;;;5031512;28;20352;-68
2020/12/02 12:15:06;;;;;;;;;;;;;;;;;;5037537;28;19971;-67
2020/12/02 12:17:32;;;;;;;;;;;;;;;;;;5023784;28;19988;-66
2020/12/02 12:19:59;;;;;;;;;;;;;;;;;;5033236;28;19976;-66
2020/12/02 12:22:25;;;;;;;;;;;;;;;;;;5037820;28;19972;-69
2020/12/02 12:24:52;;;;;;;;;;;;;;;;;;5027731;28;19925;-66
2020/12/02 12:27:18;;;;;;;;;;;;;;;;;;5037895;28;19924;-65
2020/12/02 12:29:45;;;;;;;;;;;;;;;;;;5036429;28;20435;-66
2020/12/02 12:32:11;;;;;;;;;;;;;;;;;;5032070;28;19925;-66
2020/12/02 12:34:38;;;;;;;;;;;;;;;;;;5031075;28;19932;-65
2020/12/02 12:37:04;;;;;;;;;;;;;;;;;;5031350;28;19961;-66
2020/12/02 12:39:31;;;;;;;;;;;;;;;;;;5032223;28;19976;-67
2020/12/02 12:41:57;;;;;;;;;;;;;;;;;;5027813;28;19973;-66
2020/12/02 12:44:24;;;;;;;;;;;;;;;;;;5032119;28;19978;-66
2020/12/02 12:46:50;;;;;;;;;;;;;;;;;;5028178;28;19979;-67
2020/12/02 12:49:17;;;;;;;;;;;;;;;;;;5026643;28;19984;-65
2020/12/02 12:51:43;;;;;;;;;;;;;;;;;;5026487;28;20008;-65
2020/12/02 12:54:09;;;;;;;;;;;;;;;;;;5030330;28;19925;-66
2020/12/02 12:56:36;;;;;;;;;;;;;;;;;;5032807;28;19964;-66
2020/12/02 12:59:02;;;;;;;;;;;;;;;;;;5030255;28;20012;-67
2020/12/02 13:01:29;;;;;;;;;;;;;;;;;;5020161;28;20374;-65
2020/12/02 13:03:55;;;;;;;;;;;;;;;;;;5029424;28;19971;-66
2020/12/02 13:06:22;;;;;;;;;;;;;;;;;;5024841;28;19929;-65
2020/12/02 13:08:49;;;;;;;;;;;;;;;;;;5027179;28;19936;-66
2020/12/02 13:11:15;;;;;;;;;;;;;;;;;;5031213;28;20004;-65
2020/12/02 13:13:42;;;;;;;;;;;;;;;;;;5017979;28;19933;-67
2020/12/02 13:16:08;;;;;;;;;;;;;;;;;;5031545;28;19975;-66
2020/12/02 13:18:35;;;;;;;;;;;;;;;;;;5031084;28;20456;-66
2020/12/02 13:21:01;;;;;;;;;;;;;;;;;;5029192;28;19947;-68
2020/12/02 13:23:28;;;;;;;;;;;;;;;;;;5015997;28;19929;-67
2020/12/02 13:25:54;;;;;;;;;;;;;;;;;;5028128;28;19952;-67
2020/12/02 13:28:21;;;;;;;;;;;;;;;;;;5031263;28;20052;-67
2020/12/02 13:30:47;;;;;;;;;;;;;;;;;;5027210;28;19991;-66
2020/12/02 13:33:14;;;;;;;;;;;;;;;;;;5029852;28;19953;-66
2020/12/02 13:35:40;;;;;;;;;;;;;;;;;;5023828;28;20019;-67
2020/12/02 13:38:07;;;;;;;;;;;;;;;;;;5025227;28;20032;-65
2020/12/02 13:40:34;;;;;;;;;;;;;;;;;;5032186;28;20016;-66
2020/12/02 13:43:00;;;;;;;;;;;;;;;;;;5033065;28;19961;-65
2020/12/02 13:45:27;;;;;;;;;;;;;;;;;;5048312;28;19928;-66
2020/12/02 13:47:53;;;;;;;;;;;;;;;;;;5023870;28;19925;-67
2020/12/02 13:50:19;;;;;;;;;;;;;;;;;;5029083;28;19993;-66
2020/12/02 13:52:46;;;;;;;;;;;;;;;;;;5029365;28;19986;-65
2020/12/02 13:55:12;;;;;;;;;;;;;;;;;;5026059;28;19965;-65
2020/12/02 13:57:39;;;;;;;;;;;;;;;;;;5028466;28;19933;-66
2020/12/02 14:00:05;;;;;;;;;;;;;;;;;;5031157;28;19983;-65
2020/12/02 14:02:32;;;;;;;;;;;;;;;;;;5031208;28;19968;-67
2020/12/02 14:04:59;;;;;;;;;;;;;;;;;;5024268;28;20397;-67
2020/12/02 14:07:25;;;;;;;;;;;;;;;;;;5031075;28;19925;-65
2020/12/02 14:09:51;;;;;;;;;;;;;;;;;;5022738;28;19971;-67
2020/12/02 14:12:18;;;;;;;;;;;;;;;;;;5028626;28;20019;-65
2020/12/02 14:14:44;;;;;;;;;;;;;;;;;;5026464;28;20344;-65
2020/12/02 14:17:11;;;;;;;;;;;;;;;;;;5026665;28;19925;-67
2020/12/02 14:19:37;;;;;;;;;;;;;;;;;;5027115;28;19929;-67
2020/12/02 14:22:04;;;;;;;;;;;;;;;;;;5027437;28;20383;-65
2020/12/02 14:24:31;;;;;;;;;;;;;;;;;;5031974;28;19926;-65
2020/12/02 14:26:57;;;;;;;;;;;;;;;;;;5034826;28;20399;-66
2020/12/02 14:29:24;;;;;;;;;;;;;;;;;;5031454;28;19964;-65
2020/12/02 14:31:50;;;;;;;;;;;;;;;;;;5031344;28;20300;-67
2020/12/02 14:34:17;;;;;;;;;;;;;;;;;;5019329;28;19976;-66
2020/12/02 14:36:43;;;;;;;;;;;;;;;;;;5025638;28;20366;-67
2020/12/02 14:39:10;;;;;;;;;;;;;;;;;;5031819;28;19979;-65
2020/12/02 14:41:36;;;;;;;;;;;;;;;;;;5031633;28;19925;-69
2020/12/02 14:44:03;;;;;;;;;;;;;;;;;;5030796;28;19972;-67
2020/12/02 14:46:30;;;;;;;;;;;;;;;;;;5029064;28;19956;-67
2020/12/02 14:48:56;;;;;;;;;;;;;;;;;;5029116;28;19925;-67
2020/12/02 14:51:23;;;;;;;;;;;;;;;;;;5032081;28;19975;-67
2020/12/02 14:53:49;;;;;;;;;;;;;;;;;;5030221;28;19964;-68
2020/12/02 14:56:16;;;;;;;;;;;;;;;;;;5026734;28;19925;-65
2020/12/02 14:58:42;;;;;;;;;;;;;;;;;;5026683;28;20263;-68
2020/12/02 15:01:09;;;;;;;;;;;;;;;;;;5023137;28;19929;-65
2020/12/02 15:03:35;;;;;;;;;;;;;;;;;;5031008;28;19975;-64
2020/12/02 15:06:02;;;;;;;;;;;;;;;;;;5020690;28;19956;-67
2020/12/02 15:08:28;;;;;;;;;;;;;;;;;;5025684;28;19991;-68
2020/12/02 15:10:55;;;;;;;;;;;;;;;;;;5021194;28;19926;-66
2020/12/02 15:13:21;;;;;;;;;;;;;;;;;;5024776;28;19991;-65
2020/12/02 15:15:48;;;;;;;;;;;;;;;;;;5029312;28;19998;-65
2020/12/02 15:18:14;;;;;;;;;;;;;;;;;;5023831;28;20189;-65
2020/12/02 15:20:41;;;;;;;;;;;;;;;;;;5020035;28;20027;-67
2020/12/02 15:23:07;;;;;;;;;;;;;;;;;;5021426;28;20412;-66
2020/12/02 15:25:34;;;;;;;;;;;;;;;;;;5020451;28;19976;-66
2020/12/02 15:28:00;;;;;;;;;;;;;;;;;;5022809;28;20411;-65
2020/12/02 15:30:27;;;;;;;;;;;;;;;;;;5023029;28;19987;-67
2020/12/02 15:32:53;;;;;;;;;;;;;;;;;;5022926;28;20359;-67
2020/12/02 15:35:20;;;;;;;;;;;;;;;;;;5023530;28;20079;-67
2020/12/02 15:37:46;;;;;;;;;;;;;;;;;;5023472;28;19976;-66
2020/12/02 15:40:13;;;;;;;;;;;;;;;;;;5016180;28;19926;-67
2020/12/02 15:42:39;;;;;;;;;;;;;;;;;;5016832;28;20432;-66
2020/12/02 15:45:06;;;;;;;;;;;;;;;;;;5033583;28;19931;-65
2020/12/02 15:47:32;;;;;;;;;;;;;;;;;;5026517;28;19969;-67
2020/12/02 15:49:58;;;;;;;;;;;;;;;;;;5033950;28;20040;-65
2020/12/02 15:52:25;;;;;;;;;;;;;;;;;;5030250;28;20012;-66
2020/12/02 15:54:51;;;;;;;;;;;;;;;;;;5023472;28;20020;-65
2020/12/02 15:57:18;;;;;;;;;;;;;;;;;;5032238;28;19980;-66
2020/12/02 15:59:44;;;;;;;;;;;;;;;;;;5032177;28;19925;-65
2020/12/02 16:02:11;;;;;;;;;;;;;;;;;;5027515;28;19925;-65
2020/12/02 16:04:38;;;;;;;;;;;;;;;;;;5033905;28;20305;-65
2020/12/02 16:07:04;;;;;;;;;;;;;;;;;;5030315;28;19926;-67
2020/12/02 16:09:31;;;;;;;;;;;;;;;;;;5019071;28;19933;-65
2020/12/02 16:11:57;;;;;;;;;;;;;;;;;;5024809;28;20428;-65
2020/12/02 16:14:24;;;;;;;;;;;;;;;;;;5029676;28;19979;-65
2020/12/02 16:16:50;;;;;;;;;;;;;;;;;;5026325;28;19987;-66
2020/12/02 16:19:17;;;;;;;;;;;;;;;;;;5018833;28;19973;-66
2020/12/02 16:21:43;;;;;;;;;;;;;;;;;;5025523;28;19968;-66
2020/12/02 16:24:10;;;;;;;;;;;;;;;;;;5021187;28;19925;-66
2020/12/02 16:26:36;;;;;;;;;;;;;;;;;;5020345;28;20011;-66
2020/12/02 16:29:03;;;;;;;;;;;;;;;;;;5031609;28;20012;-67
2020/12/02 16:31:29;;;;;;;;;;;;;;;;;;5016851;28;19925;-66
2020/12/02 16:33:57;;;;;;;;;;;;;;;;;;5022413;28;20450;-66
2020/12/02 16:36:23;;;;;;;;;;;;;;;;;;5020740;28;19968;-66
2020/12/02 16:38:50;;;;;;;;;;;;;;;;;;5032905;28;21392;-66
2020/12/02 16:41:16;;;;;;;;;;;;;;;;;;5024666;28;19965;-67